Time;durP1;ratioP1;P1;durP2;ratioP2;P2;SDS_P1;SDS_P2;PMS_P1;PMS_P2;Temp;Humidity;BMP_temperature;BMP_pressure;BME280_temperature;BME280_humidity;BME280_pressure;Samples;Min_cycle;Max_cycle;Signal;HPM_P1;HPM_P2
2023/04/10 00:01:49;;;;;;;15.32;11.38;;;;;;;;;;6093160;23;20026;-77
2023/04/10 00:04:15;;;;;;;15.68;11.57;;;;;;;;;;6067882;23;20018;-78
2023/04/10 00:06:41;;;;;;;19.83;12.88;;;;;;;;;;6068884;23;20058;-79
2023/04/10 00:09:07;;;;;;;23.98;12.23;;;;;;;;;;6093850;23;20023;-78
2023/04/10 00:11:34;;;;;;;18.65;11.18;;;;;;;;;;6098656;23;20093;-77
2023/04/10 00:14:00;;;;;;;22.45;14.05;;;;;;;;;;6107092;23;20018;-77
2023/04/10 00:16:26;;;;;;;16.45;13.35;;;;;;;;;;6091776;23;20010;-77
2023/04/10 00:18:52;;;;;;;31.92;12.65;;;;;;;;;;6116177;23;20018;-76
2023/04/10 00:21:17;;;;;;;21.20;11.45;;;;;;;;;;6116877;23;20055;-77
2023/04/10 00:23:43;;;;;;;23.73;12.75;;;;;;;;;;6117632;23;20412;-78
2023/04/10 00:26:10;;;;;;;18.52;11.63;;;;;;;;;;6069386;23;20037;-77
2023/04/10 00:28:37;;;;;;;17.50;12.23;;;;;;;;;;6067633;23;20150;-77
2023/04/10 00:31:05;;;;;;;15.70;11.77;;;;;;;;;;6094681;23;20034;-79
2023/04/10 00:33:32;;;;;;;15.77;11.70;;;;;;;;;;6068544;23;20019;-78
2023/04/10 00:35:57;;;;;;;18.85;12.32;;;;;;;;;;6068011;23;20333;-78
2023/04/10 00:38:24;;;;;;;19.05;11.13;;;;;;;;;;6093671;23;20096;-79
2023/04/10 00:40:50;;;;;;;18.42;13.30;;;;;;;;;;6093190;23;20404;-76
2023/04/10 00:43:19;;;;;;;17.13;13.27;;;;;;;;;;6067775;23;20014;-78
2023/04/10 00:45:45;;;;;;;17.70;11.82;;;;;;;;;;6068229;23;20010;-78
2023/04/10 00:48:11;;;;;;;13.32;10.45;;;;;;;;;;6067428;23;20018;-78
2023/04/10 00:50:37;;;;;;;16.60;11.23;;;;;;;;;;6019694;23;20011;-78
2023/04/10 00:53:03;;;;;;;15.30;11.88;;;;;;;;;;6092537;23;20093;-78
2023/04/10 00:55:29;;;;;;;19.65;12.73;;;;;;;;;;6092650;23;20022;-79
2023/04/10 00:57:55;;;;;;;17.77;13.30;;;;;;;;;;6046787;23;20018;-80
2023/04/10 01:00:21;;;;;;;14.07;11.98;;;;;;;;;;6070352;23;20018;-80
2023/04/10 01:02:47;;;;;;;27.58;13.65;;;;;;;;;;6069932;23;20033;-81
2023/04/10 01:05:13;;;;;;;13.00;11.80;;;;;;;;;;6099372;23;20022;-81
2023/04/10 01:07:48;;;;;;;17.00;12.48;;;;;;;;;;6071091;23;20026;-82
2023/04/10 01:10:19;;;;;;;18.67;12.25;;;;;;;;;;6071333;23;20478;-82
2023/04/10 01:12:59;;;;;;;18.25;12.48;;;;;;;;;;6096055;23;20021;-81
2023/04/10 01:15:27;;;;;;;17.42;12.30;;;;;;;;;;6046918;23;20019;-80
2023/04/10 01:18:07;;;;;;;16.45;11.23;;;;;;;;;;6097481;23;20069;-82
2023/04/10 01:20:35;;;;;;;16.50;12.20;;;;;;;;;;6096738;23;20010;-79
2023/04/10 01:23:20;;;;;;;18.52;12.75;;;;;;;;;;6040270;23;20547;-79
2023/04/10 01:25:55;;;;;;;21.75;12.15;;;;;;;;;;6063985;23;20049;-80
2023/04/10 01:28:21;;;;;;;20.40;13.35;;;;;;;;;;6040302;23;20061;-79
2023/04/10 01:30:49;;;;;;;24.33;15.77;;;;;;;;;;6064268;23;20456;-80
2023/04/10 01:33:16;;;;;;;19.67;14.07;;;;;;;;;;6065832;23;20467;-78
2023/04/10 01:35:43;;;;;;;22.50;13.90;;;;;;;;;;6065677;23;20015;-80
2023/04/10 01:38:09;;;;;;;43.00;18.67;;;;;;;;;;6065448;23;20033;-80
2023/04/10 01:40:35;;;;;;;46.10;17.85;;;;;;;;;;6063997;23;20014;-79
2023/04/10 01:43:01;;;;;;;37.58;17.52;;;;;;;;;;6064222;23;20034;-80
2023/04/10 01:45:40;;;;;;;46.97;16.48;;;;;;;;;;6064354;23;20479;-79
2023/04/10 01:48:06;;;;;;;24.50;13.70;;;;;;;;;;6063698;23;20464;-79
2023/04/10 01:50:33;;;;;;;29.23;15.43;;;;;;;;;;6063758;23;20101;-79
2023/04/10 01:52:59;;;;;;;20.98;11.65;;;;;;;;;;6063961;23;20090;-80
2023/04/10 01:55:26;;;;;;;16.73;10.55;;;;;;;;;;6040069;23;20507;-79
2023/04/10 01:57:58;;;;;;;9.88;7.43;;;;;;;;;;6065353;23;20094;-80
2023/04/10 02:00:24;;;;;;;12.35;9.95;;;;;;;;;;6042789;23;20022;-81
2023/04/10 02:02:51;;;;;;;19.85;14.05;;;;;;;;;;6045008;23;20046;-80
2023/04/10 02:05:17;;;;;;;10.63;7.28;;;;;;;;;;6079578;23;20019;-80
2023/04/10 02:07:50;;;;;;;18.88;12.23;;;;;;;;;;6084886;23;20021;-81
2023/04/10 02:10:18;;;;;;;20.90;14.35;;;;;;;;;;6073218;23;20023;-81
2023/04/10 02:12:45;;;;;;;21.90;12.55;;;;;;;;;;6042230;23;20010;-79
2023/04/10 02:15:11;;;;;;;23.02;14.05;;;;;;;;;;6066809;23;20094;-80
2023/04/10 02:17:37;;;;;;;18.13;12.98;;;;;;;;;;6065386;23;20046;-80
2023/04/10 02:20:04;;;;;;;17.23;13.10;;;;;;;;;;6068876;23;20015;-83
2023/04/10 02:22:30;;;;;;;16.15;12.45;;;;;;;;;;6030439;23;20023;-83
2023/04/10 02:24:57;;;;;;;16.98;13.10;;;;;;;;;;6058448;23;20010;-83
2023/04/10 02:27:27;;;;;;;19.27;11.98;;;;;;;;;;6078313;23;20067;-82
2023/04/10 02:29:53;;;;;;;22.25;12.27;;;;;;;;;;6076189;23;20099;-83
2023/04/10 02:32:19;;;;;;;16.33;11.82;;;;;;;;;;6077756;23;20014;-82
2023/04/10 02:34:45;;;;;;;16.02;12.07;;;;;;;;;;6028466;23;20124;-82
2023/04/10 02:37:11;;;;;;;18.80;12.82;;;;;;;;;;6076954;23;20015;-82
2023/04/10 02:39:37;;;;;;;26.00;13.60;;;;;;;;;;6078585;23;20014;-83
2023/04/10 02:42:03;;;;;;;21.25;12.85;;;;;;;;;;6056972;23;20014;-84
2023/04/10 02:44:30;;;;;;;19.35;12.88;;;;;;;;;;6083001;23;20011;-82
2023/04/10 02:46:56;;;;;;;13.90;11.70;;;;;;;;;;6049891;23;20025;-80
2023/04/10 02:49:22;;;;;;;15.57;11.57;;;;;;;;;;6058552;23;20033;-82
2023/04/10 02:51:48;;;;;;;20.77;11.50;;;;;;;;;;6084609;23;20056;-84
2023/04/10 02:54:16;;;;;;;16.95;11.48;;;;;;;;;;6081911;23;20018;-84
2023/04/10 02:56:42;;;;;;;18.13;12.18;;;;;;;;;;6056528;23;20014;-83
2023/04/10 02:59:08;;;;;;;17.35;12.55;;;;;;;;;;6056539;23;20014;-84
2023/04/10 03:01:35;;;;;;;18.67;11.35;;;;;;;;;;6053271;23;20372;-81
2023/04/10 03:04:02;;;;;;;12.00;10.73;;;;;;;;;;6073182;23;20384;-82
2023/04/10 03:06:39;;;;;;;28.52;13.25;;;;;;;;;;6057017;23;20070;-84
2023/04/10 03:09:06;;;;;;;23.25;12.90;;;;;;;;;;6085931;23;20039;-82
2023/04/10 03:11:33;;;;;;;18.95;12.90;;;;;;;;;;6088731;23;20015;-83
2023/04/10 03:14:00;;;;;;;25.98;13.52;;;;;;;;;;6061387;23;20122;-84
2023/04/10 03:16:26;;;;;;;26.05;15.38;;;;;;;;;;6087719;23;20030;-84
2023/04/10 03:18:52;;;;;;;24.90;16.45;;;;;;;;;;6086664;23;20014;-83
2023/04/10 03:21:18;;;;;;;22.67;14.98;;;;;;;;;;6059540;23;20018;-82
2023/04/10 03:23:45;;;;;;;22.23;15.27;;;;;;;;;;6100801;23;20022;-82
2023/04/10 03:26:11;;;;;;;26.95;16.75;;;;;;;;;;6084167;23;20024;-82
2023/04/10 03:28:38;;;;;;;33.20;18.48;;;;;;;;;;6087149;23;20483;-83
2023/04/10 03:31:05;;;;;;;36.70;17.17;;;;;;;;;;6114261;23;20014;-83
2023/04/10 03:33:34;;;;;;;27.95;16.23;;;;;;;;;;6088382;23;20014;-85
2023/04/10 03:36:00;;;;;;;28.63;16.17;;;;;;;;;;6087357;23;20025;-85
2023/04/10 03:38:26;;;;;;;23.35;16.42;;;;;;;;;;6110281;23;20018;-84
2023/04/10 03:40:52;;;;;;;23.70;15.73;;;;;;;;;;6111919;23;20098;-83
2023/04/10 03:43:23;;;;;;;29.60;15.13;;;;;;;;;;6089095;23;20105;-81
2023/04/10 03:45:50;;;;;;;24.38;13.77;;;;;;;;;;6065507;23;20020;-84
2023/04/10 03:48:18;;;;;;;19.00;13.02;;;;;;;;;;6115864;23;20018;-84
2023/04/10 03:50:46;;;;;;;26.23;13.52;;;;;;;;;;6088245;23;20014;-84
2023/04/10 03:53:12;;;;;;;25.85;14.30;;;;;;;;;;6117242;23;20017;-84
2023/04/10 03:55:38;;;;;;;40.58;15.48;;;;;;;;;;6109420;23;20046;-83
2023/04/10 03:58:04;;;;;;;22.60;13.27;;;;;;;;;;6082201;23;20070;-82
2023/04/10 04:00:31;;;;;;;28.05;13.95;;;;;;;;;;6078289;23;20084;-82
2023/04/10 04:03:10;;;;;;;23.05;12.88;;;;;;;;;;6078290;23;20366;-82
2023/04/10 04:06:02;;;;;;;19.77;12.35;;;;;;;;;;6064039;23;20054;-81
2023/04/10 04:08:55;;;;;;;19.35;10.98;;;;;;;;;;6088318;23;20054;-80
2023/04/10 04:11:35;;;;;;;18.65;12.88;;;;;;;;;;6069134;23;20102;-80
2023/04/10 04:14:06;;;;;;;19.42;11.88;;;;;;;;;;6068824;23;20018;-81
2023/04/10 04:16:41;;;;;;;13.45;11.95;;;;;;;;;;6071409;23;20019;-81
2023/04/10 04:19:33;;;;;;;13.20;10.43;;;;;;;;;;6092099;23;20455;-83
2023/04/10 04:22:26;;;;;;;19.67;13.45;;;;;;;;;;6063644;23;20022;-82
2023/04/10 04:25:25;;;;;;;26.75;12.60;;;;;;;;;;6039939;23;20069;-81
2023/04/10 04:28:18;;;;;;;22.20;12.55;;;;;;;;;;6052670;23;20046;-82
2023/04/10 04:31:11;;;;;;;25.60;13.13;;;;;;;;;;6063766;23;20014;-79
2023/04/10 04:34:06;;;;;;;25.92;12.43;;;;;;;;;;6068928;23;20041;-78
2023/04/10 04:36:55;;;;;;;22.75;12.60;;;;;;;;;;6052978;23;20023;-80
2023/04/10 04:39:35;;;;;;;26.83;13.80;;;;;;;;;;6067562;23;20083;-80
2023/04/10 04:42:14;;;;;;;22.80;13.70;;;;;;;;;;6042201;23;20029;-81
2023/04/10 04:44:49;;;;;;;29.40;14.07;;;;;;;;;;6091420;23;20011;-80
2023/04/10 04:47:37;;;;;;;23.75;12.85;;;;;;;;;;6092711;23;20018;-82
2023/04/10 04:50:25;;;;;;;21.70;13.70;;;;;;;;;;6095792;23;20022;-83
2023/04/10 04:53:18;;;;;;;24.58;12.75;;;;;;;;;;6064478;23;20010;-83
2023/04/10 04:55:56;;;;;;;22.65;14.27;;;;;;;;;;6075300;23;20074;-83
2023/04/10 04:58:42;;;;;;;27.67;14.07;;;;;;;;;;6028172;23;20019;-82
2023/04/10 05:01:27;;;;;;;56.50;26.23;;;;;;;;;;6065849;23;20478;-79
2023/04/10 05:04:10;;;;;;;17.52;12.23;;;;;;;;;;6067032;23;20285;-80
2023/04/10 05:07:06;;;;;;;27.15;12.95;;;;;;;;;;6074322;23;20403;-80
2023/04/10 05:09:52;;;;;;;23.83;12.02;;;;;;;;;;6093912;23;20049;-81
2023/04/10 05:12:36;;;;;;;27.58;14.23;;;;;;;;;;6095374;23;20007;-80
2023/04/10 05:15:24;;;;;;;18.98;11.20;;;;;;;;;;6095625;23;20074;-79
2023/04/10 05:18:08;;;;;;;42.40;15.20;;;;;;;;;;6095895;23;20042;-79
2023/04/10 05:20:37;;;;;;;34.33;14.65;;;;;;;;;;6094456;23;20014;-79
2023/04/10 05:23:42;;;;;;;34.05;14.40;;;;;;;;;;6042604;23;20049;-81
2023/04/10 05:26:26;;;;;;;26.73;14.73;;;;;;;;;;6044902;23;20093;-74
2023/04/10 05:29:28;;;;;;;31.60;14.20;;;;;;;;;;6041727;23;20026;-74
2023/04/10 05:32:21;;;;;;;31.88;14.82;;;;;;;;;;6065044;23;20022;-73
2023/04/10 05:35:16;;;;;;;23.48;13.77;;;;;;;;;;5987836;23;20455;-73
2023/04/10 05:38:12;;;;;;;22.98;14.75;;;;;;;;;;5987351;23;20040;-73
2023/04/10 05:40:47;;;;;;;24.08;14.35;;;;;;;;;;6061677;23;20022;-73
2023/04/10 05:43:32;;;;;;;25.98;14.98;;;;;;;;;;6061828;23;20011;-74
2023/04/10 05:46:31;;;;;;;22.55;14.63;;;;;;;;;;6015405;23;20022;-75
2023/04/10 05:49:32;;;;;;;21.45;13.40;;;;;;;;;;6040585;23;20094;-73
2023/04/10 05:52:11;;;;;;;21.95;13.85;;;;;;;;;;6062993;23;20499;-74
2023/04/10 05:55:02;;;;;;;20.38;13.55;;;;;;;;;;6064891;23;20022;-73
2023/04/10 05:57:54;;;;;;;15.63;13.73;;;;;;;;;;6066531;23;20011;-74
2023/04/10 06:00:23;;;;;;;23.42;13.43;;;;;;;;;;6071431;23;20486;-73
2023/04/10 06:03:12;;;;;;;17.63;13.03;;;;;;;;;;6073184;23;20042;-74
2023/04/10 06:05:49;;;;;;;21.52;12.55;;;;;;;;;;6064567;23;20010;-73
2023/04/10 06:08:15;;;;;;;44.95;14.50;;;;;;;;;;6063417;23;20155;-73
2023/04/10 06:10:41;;;;;;;37.13;13.52;;;;;;;;;;6016616;23;20504;-73
2023/04/10 06:13:10;;;;;;;18.10;12.02;;;;;;;;;;6064094;23;20144;-73
2023/04/10 06:15:36;;;;;;;23.40;12.02;;;;;;;;;;6064181;23;20022;-73
2023/04/10 06:18:03;;;;;;;22.40;12.93;;;;;;;;;;6063895;23;20014;-73
2023/04/10 06:20:29;;;;;;;21.25;12.45;;;;;;;;;;6063642;23;20015;-74
2023/04/10 06:22:55;;;;;;;20.17;11.98;;;;;;;;;;6079515;23;20030;-74
2023/04/10 06:25:21;;;;;;;24.10;12.48;;;;;;;;;;6067952;23;20066;-73
2023/04/10 06:27:47;;;;;;;19.35;12.75;;;;;;;;;;6068312;23;20018;-75
2023/04/10 06:30:13;;;;;;;17.45;11.90;;;;;;;;;;6068022;23;20022;-74
2023/04/10 06:32:40;;;;;;;9.88;8.98;;;;;;;;;;6068357;23;20018;-74
2023/04/10 06:35:06;;;;;;;11.40;8.98;;;;;;;;;;6067939;23;20014;-74
2023/04/10 06:37:32;;;;;;;9.15;8.35;;;;;;;;;;6068400;23;20025;-74
2023/04/10 06:40:07;;;;;;;19.13;9.73;;;;;;;;;;6068274;23;20010;-73
2023/04/10 06:42:33;;;;;;;15.23;10.02;;;;;;;;;;6093783;23;20478;-75
2023/04/10 06:45:06;;;;;;;18.52;9.85;;;;;;;;;;6045792;23;20010;-74
2023/04/10 06:47:32;;;;;;;12.05;9.23;;;;;;;;;;6093643;23;20134;-74
2023/04/10 06:49:58;;;;;;;11.15;10.18;;;;;;;;;;6093755;23;20475;-74
2023/04/10 06:52:25;;;;;;;12.30;9.50;;;;;;;;;;6106771;23;20014;-74
2023/04/10 06:54:50;;;;;;;10.80;8.75;;;;;;;;;;6113801;23;20046;-73
2023/04/10 06:57:17;;;;;;;13.05;9.95;;;;;;;;;;6112820;23;20015;-74
2023/04/10 06:59:44;;;;;;;15.43;9.95;;;;;;;;;;6113841;23;20048;-72
2023/04/10 07:02:10;;;;;;;10.68;9.68;;;;;;;;;;6083496;23;20113;-73
2023/04/10 07:04:36;;;;;;;11.52;9.63;;;;;;;;;;6094423;23;20014;-73
2023/04/10 07:07:08;;;;;;;11.85;9.75;;;;;;;;;;6094316;23;20014;-73
2023/04/10 07:09:34;;;;;;;14.65;10.10;;;;;;;;;;6094285;23;20053;-73
2023/04/10 07:12:01;;;;;;;18.25;10.27;;;;;;;;;;6093765;23;20025;-73
2023/04/10 07:14:26;;;;;;;18.23;10.40;;;;;;;;;;6093040;23;20498;-73
2023/04/10 07:16:52;;;;;;;17.08;10.52;;;;;;;;;;6068072;23;20018;-73
2023/04/10 07:19:19;;;;;;;14.38;11.02;;;;;;;;;;6093327;23;20042;-73
2023/04/10 07:21:49;;;;;;;17.42;10.38;;;;;;;;;;6093846;23;20016;-74
2023/04/10 07:24:16;;;;;;;20.48;10.45;;;;;;;;;;6068285;23;20029;-73
2023/04/10 07:26:43;;;;;;;12.50;10.25;;;;;;;;;;6093503;23;20073;-73
2023/04/10 07:29:08;;;;;;;13.73;10.23;;;;;;;;;;6093117;23;20097;-73
2023/04/10 07:31:35;;;;;;;15.15;9.52;;;;;;;;;;6092341;23;20010;-75
2023/04/10 07:34:01;;;;;;;18.70;11.07;;;;;;;;;;6067585;23;20015;-73
2023/04/10 07:36:27;;;;;;;12.13;10.55;;;;;;;;;;6043754;23;20069;-74
2023/04/10 07:38:54;;;;;;;14.48;10.05;;;;;;;;;;6067499;23;20014;-74
2023/04/10 07:41:21;;;;;;;13.30;10.15;;;;;;;;;;6066999;23;20014;-72
2023/04/10 07:43:47;;;;;;;11.85;9.88;;;;;;;;;;6093187;23;20018;-72
2023/04/10 07:46:13;;;;;;;11.95;9.50;;;;;;;;;;6092640;23;20439;-74
2023/04/10 07:48:39;;;;;;;12.07;10.90;;;;;;;;;;6067686;23;20026;-74
2023/04/10 07:51:08;;;;;;;10.20;9.10;;;;;;;;;;6093005;23;20037;-74
2023/04/10 07:53:34;;;;;;;9.77;8.38;;;;;;;;;;6093118;23;20018;-74
2023/04/10 07:56:00;;;;;;;16.60;9.20;;;;;;;;;;6092822;23;20395;-73
2023/04/10 07:58:27;;;;;;;16.67;11.40;;;;;;;;;;6043122;23;20526;-74
2023/04/10 08:00:52;;;;;;;9.57;8.57;;;;;;;;;;6043105;23;20018;-75
2023/04/10 08:03:18;;;;;;;8.23;7.53;;;;;;;;;;6091798;23;20014;-76
2023/04/10 08:05:44;;;;;;;11.10;9.13;;;;;;;;;;6046164;23;20018;-74
2023/04/10 08:08:10;;;;;;;9.32;8.45;;;;;;;;;;6111387;23;20453;-74
2023/04/10 08:10:37;;;;;;;7.60;6.90;;;;;;;;;;6086234;23;20033;-74
2023/04/10 08:13:03;;;;;;;11.85;8.40;;;;;;;;;;6087123;23;20029;-74
2023/04/10 08:15:29;;;;;;;11.05;7.85;;;;;;;;;;6109404;23;20026;-74
2023/04/10 08:17:55;;;;;;;11.43;8.20;;;;;;;;;;6087445;23;20070;-74
2023/04/10 08:20:21;;;;;;;8.75;7.85;;;;;;;;;;6078699;23;20015;-74
2023/04/10 08:22:47;;;;;;;10.38;7.32;;;;;;;;;;6041047;23;20667;-73
2023/04/10 08:25:14;;;;;;;12.85;10.35;;;;;;;;;;6065799;23;20063;-73
2023/04/10 08:27:40;;;;;;;21.63;14.68;;;;;;;;;;6065597;23;20019;-73
2023/04/10 08:30:06;;;;;;;22.92;14.70;;;;;;;;;;6065116;23;20101;-73
2023/04/10 08:32:32;;;;;;;32.30;15.65;;;;;;;;;;6066442;23;20011;-74
2023/04/10 08:34:58;;;;;;;28.48;17.42;;;;;;;;;;6066423;23;20392;-74
2023/04/10 08:37:25;;;;;;;29.83;16.52;;;;;;;;;;6016813;23;20479;-74
2023/04/10 08:39:51;;;;;;;27.50;14.80;;;;;;;;;;6066043;23;20018;-74
2023/04/10 08:42:17;;;;;;;22.58;15.52;;;;;;;;;;6064345;23;20011;-74
2023/04/10 08:44:44;;;;;;;22.52;14.18;;;;;;;;;;6065831;23;20046;-73
2023/04/10 08:47:10;;;;;;;29.48;15.30;;;;;;;;;;6065383;23;20019;-73
2023/04/10 08:49:39;;;;;;;31.83;16.08;;;;;;;;;;6039723;23;20050;-73
2023/04/10 08:52:11;;;;;;;27.13;15.98;;;;;;;;;;6065698;23;20137;-73
2023/04/10 08:54:37;;;;;;;36.22;15.52;;;;;;;;;;6065008;23;20019;-74
2023/04/10 08:57:03;;;;;;;27.13;13.27;;;;;;;;;;6065616;23;20055;-72
2023/04/10 08:59:30;;;;;;;18.40;11.98;;;;;;;;;;6038852;23;20021;-75
2023/04/10 09:01:59;;;;;;;14.52;9.18;;;;;;;;;;6039462;23;20062;-73
2023/04/10 09:04:25;;;;;;;11.38;9.85;;;;;;;;;;6065193;23;20042;-74
2023/04/10 09:06:54;;;;;;;9.45;8.25;;;;;;;;;;6066116;23;20015;-73
2023/04/10 09:09:20;;;;;;;9.18;8.27;;;;;;;;;;6040726;23;20057;-74
2023/04/10 09:11:54;;;;;;;26.95;12.30;;;;;;;;;;6065834;23;20010;-73
2023/04/10 09:14:20;;;;;;;17.60;10.80;;;;;;;;;;6065166;23;20106;-74
2023/04/10 09:16:47;;;;;;;19.92;12.25;;;;;;;;;;6040958;23;20010;-74
2023/04/10 09:19:13;;;;;;;24.20;12.13;;;;;;;;;;6039171;23;20015;-74
2023/04/10 09:21:39;;;;;;;13.32;9.68;;;;;;;;;;6040691;23;20006;-74
2023/04/10 09:24:05;;;;;;;14.80;10.23;;;;;;;;;;6068500;23;20046;-73
2023/04/10 09:26:32;;;;;;;13.45;9.30;;;;;;;;;;6095176;23;20014;-74
2023/04/10 09:29:04;;;;;;;12.52;9.48;;;;;;;;;;6097447;23;20029;-73
2023/04/10 09:31:34;;;;;;;14.27;8.38;;;;;;;;;;6049140;23;20539;-73
2023/04/10 09:34:09;;;;;;;13.57;9.07;;;;;;;;;;6074194;23;20049;-74
2023/04/10 09:36:36;;;;;;;7.68;6.95;;;;;;;;;;6092883;23;20448;-74
2023/04/10 09:39:02;;;;;;;9.27;8.02;;;;;;;;;;6069151;23;20037;-77
2023/04/10 09:41:28;;;;;;;7.53;6.78;;;;;;;;;;6068277;23;20030;-74
2023/04/10 09:44:08;;;;;;;11.98;8.02;;;;;;;;;;6094387;23;20022;-74
2023/04/10 09:46:34;;;;;;;9.02;7.53;;;;;;;;;;6068274;23;20011;-74
2023/04/10 09:49:03;;;;;;;13.18;9.10;;;;;;;;;;6066625;23;20077;-74
2023/04/10 09:51:30;;;;;;;15.98;9.02;;;;;;;;;;6092430;23;20045;-75
2023/04/10 09:53:56;;;;;;;11.05;8.88;;;;;;;;;;6021150;23;20014;-73
2023/04/10 09:56:21;;;;;;;12.80;9.68;;;;;;;;;;6093628;23;20042;-73
2023/04/10 09:58:48;;;;;;;15.18;9.80;;;;;;;;;;6068276;23;20065;-73
2023/04/10 10:01:13;;;;;;;10.63;9.68;;;;;;;;;;6093463;23;20475;-74
2023/04/10 10:03:39;;;;;;;9.52;7.22;;;;;;;;;;6043938;23;20149;-73
2023/04/10 10:06:05;;;;;;;9.23;8.43;;;;;;;;;;6069301;23;20038;-74
2023/04/10 10:08:31;;;;;;;10.43;8.52;;;;;;;;;;6094441;23;20400;-74
2023/04/10 10:10:58;;;;;;;12.57;7.72;;;;;;;;;;6067851;23;20514;-74
2023/04/10 10:13:24;;;;;;;9.05;8.13;;;;;;;;;;6043934;23;20014;-74
2023/04/10 10:16:11;;;;;;;9.82;8.60;;;;;;;;;;6092072;23;20101;-74
2023/04/10 10:18:56;;;;;;;10.88;9.57;;;;;;;;;;6065691;23;20056;-75
2023/04/10 10:21:22;;;;;;;10.05;9.05;;;;;;;;;;6091183;23;20025;-75
2023/04/10 10:23:53;;;;;;;15.95;9.75;;;;;;;;;;6091084;23;20394;-74
2023/04/10 10:26:22;;;;;;;10.68;9.52;;;;;;;;;;6091283;23;20018;-75
2023/04/10 10:28:48;;;;;;;9.70;8.80;;;;;;;;;;6091299;23;20058;-75
2023/04/10 10:31:16;;;;;;;12.25;10.40;;;;;;;;;;6067548;23;20101;-74
2023/04/10 10:33:42;;;;;;;14.38;9.95;;;;;;;;;;6094624;23;20018;-74
2023/04/10 10:36:07;;;;;;;10.93;9.93;;;;;;;;;;6094470;23;20014;-74
2023/04/10 10:38:33;;;;;;;10.30;9.27;;;;;;;;;;6069063;23;20025;-74
2023/04/10 10:41:01;;;;;;;15.80;9.13;;;;;;;;;;6068701;23;20022;-74
2023/04/10 10:43:46;;;;;;;9.38;8.55;;;;;;;;;;6094162;23;20487;-74
2023/04/10 10:46:13;;;;;;;11.23;9.82;;;;;;;;;;6094366;23;20081;-74
2023/04/10 10:48:39;;;;;;;10.68;9.60;;;;;;;;;;6068351;23;20014;-74
2023/04/10 10:51:05;;;;;;;10.25;9.35;;;;;;;;;;6068938;23;20016;-74
2023/04/10 10:53:31;;;;;;;13.18;7.00;;;;;;;;;;6068830;23;20097;-73
2023/04/10 10:55:57;;;;;;;9.75;8.82;;;;;;;;;;6068881;23;20018;-74
2023/04/10 10:58:54;;;;;;;9.60;8.70;;;;;;;;;;6094370;23;20139;-74
2023/04/10 11:01:21;;;;;;;9.32;8.43;;;;;;;;;;6045604;23;20029;-74
2023/04/10 11:03:47;;;;;;;9.38;8.05;;;;;;;;;;6094323;23;20033;-73
2023/04/10 11:06:18;;;;;;;9.93;8.13;;;;;;;;;;6094017;23;20022;-74
2023/04/10 11:08:47;;;;;;;16.50;10.10;;;;;;;;;;6094154;23;20014;-74
2023/04/10 11:11:14;;;;;;;11.27;9.63;;;;;;;;;;6069041;23;20121;-74
2023/04/10 11:13:41;;;;;;;20.20;11.32;;;;;;;;;;6068999;23;20018;-75
2023/04/10 11:16:09;;;;;;;10.52;9.23;;;;;;;;;;6069094;23;20018;-75
2023/04/10 11:18:44;;;;;;;9.95;8.95;;;;;;;;;;6094032;23;20137;-75
2023/04/10 11:21:10;;;;;;;11.95;8.10;;;;;;;;;;6094146;23;20415;-74
2023/04/10 11:23:37;;;;;;;9.60;8.10;;;;;;;;;;6093527;23;20015;-75
2023/04/10 11:26:05;;;;;;;10.02;8.02;;;;;;;;;;6094042;23;20070;-76
2023/04/10 11:28:31;;;;;;;9.95;8.00;;;;;;;;;;6093744;23;20024;-75
2023/04/10 11:31:18;;;;;;;8.45;6.78;;;;;;;;;;6068259;23;20021;-74
2023/04/10 11:33:44;;;;;;;9.13;7.47;;;;;;;;;;6094067;23;20113;-73
2023/04/10 11:36:12;;;;;;;9.45;7.55;;;;;;;;;;6094090;23;20018;-73
2023/04/10 11:38:38;;;;;;;7.68;6.85;;;;;;;;;;6095355;23;20014;-74
2023/04/10 11:41:05;;;;;;;6.80;5.88;;;;;;;;;;6094668;23;20018;-74
2023/04/10 11:43:32;;;;;;;8.90;7.43;;;;;;;;;;6093912;23;20451;-74
2023/04/10 11:45:59;;;;;;;8.23;7.30;;;;;;;;;;6068714;23;20037;-75
2023/04/10 11:48:25;;;;;;;11.90;9.55;;;;;;;;;;6094360;23;20086;-74
2023/04/10 11:50:52;;;;;;;9.90;8.90;;;;;;;;;;6096135;23;20441;-75
2023/04/10 11:53:18;;;;;;;10.25;9.20;;;;;;;;;;6095896;23;20065;-74
2023/04/10 11:55:45;;;;;;;10.63;8.73;;;;;;;;;;6095942;23;20022;-75
2023/04/10 11:58:25;;;;;;;12.52;7.28;;;;;;;;;;6070538;23;20475;-75
2023/04/10 12:00:57;;;;;;;10.48;8.57;;;;;;;;;;6047558;23;20018;-75
2023/04/10 12:03:36;;;;;;;8.48;7.70;;;;;;;;;;6096788;23;20015;-74
2023/04/10 12:06:03;;;;;;;9.65;8.23;;;;;;;;;;6095791;23;20014;-75
2023/04/10 12:08:32;;;;;;;29.23;7.72;;;;;;;;;;6044514;23;20069;-74
2023/04/10 12:10:59;;;;;;;9.27;8.48;;;;;;;;;;6093911;23;20018;-74
2023/04/10 12:13:26;;;;;;;9.75;8.82;;;;;;;;;;6068993;23;20089;-73
2023/04/10 12:15:53;;;;;;;14.63;7.80;;;;;;;;;;6090274;23;20026;-74
2023/04/10 12:18:20;;;;;;;16.20;7.97;;;;;;;;;;6066608;23;20089;-74
2023/04/10 12:20:46;;;;;;;9.70;8.80;;;;;;;;;;6068360;23;20112;-73
2023/04/10 12:23:12;;;;;;;13.43;8.23;;;;;;;;;;6064396;23;20101;-73
2023/04/10 12:25:38;;;;;;;9.35;8.45;;;;;;;;;;6062722;23;20098;-74
2023/04/10 12:28:04;;;;;;;8.68;7.97;;;;;;;;;;6063278;23;20018;-73
2023/04/10 12:30:30;;;;;;;9.75;8.95;;;;;;;;;;6063707;23;20114;-74
2023/04/10 12:32:56;;;;;;;11.82;8.65;;;;;;;;;;6062210;23;20014;-73
2023/04/10 12:35:38;;;;;;;14.23;10.32;;;;;;;;;;6063530;23;20026;-74
2023/04/10 12:38:04;;;;;;;9.73;8.02;;;;;;;;;;6063813;23;20023;-73
2023/04/10 12:40:30;;;;;;;7.68;6.88;;;;;;;;;;6061698;23;20042;-74
2023/04/10 12:42:56;;;;;;;11.88;9.30;;;;;;;;;;6062754;23;20017;-73
2023/04/10 12:45:49;;;;;;;11.52;9.48;;;;;;;;;;6064577;23;20011;-74
2023/04/10 12:48:21;;;;;;;22.20;10.10;;;;;;;;;;6058547;23;20371;-73
2023/04/10 12:50:48;;;;;;;17.83;10.32;;;;;;;;;;6063823;23;20199;-74
2023/04/10 12:53:13;;;;;;;39.85;10.30;;;;;;;;;;6064104;23;20455;-74
2023/04/10 12:55:40;;;;;;;24.70;10.43;;;;;;;;;;6064632;23;20022;-74
2023/04/10 12:58:18;;;;;;;29.95;10.88;;;;;;;;;;6066317;23;20018;-74
2023/04/10 13:00:45;;;;;;;13.43;10.45;;;;;;;;;;6042329;23;20034;-73
2023/04/10 13:03:11;;;;;;;16.60;11.60;;;;;;;;;;6044957;23;20034;-73
2023/04/10 13:05:37;;;;;;;18.13;13.27;;;;;;;;;;6071645;23;20018;-74
2023/04/10 13:08:03;;;;;;;18.15;14.10;;;;;;;;;;6042886;23;20015;-73
2023/04/10 13:10:29;;;;;;;22.27;14.40;;;;;;;;;;6041556;23;20522;-73
2023/04/10 13:12:55;;;;;;;20.98;12.77;;;;;;;;;;6066255;23;20045;-75
2023/04/10 13:15:21;;;;;;;32.08;13.32;;;;;;;;;;6040144;23;20452;-74
2023/04/10 13:17:47;;;;;;;15.55;11.88;;;;;;;;;;6053502;23;20014;-74
2023/04/10 13:20:13;;;;;;;17.40;11.05;;;;;;;;;;6014218;23;20014;-74
2023/04/10 13:22:39;;;;;;;15.20;11.10;;;;;;;;;;6074847;23;20061;-74
2023/04/10 13:25:05;;;;;;;19.90;10.85;;;;;;;;;;6067404;23;20018;-74
2023/04/10 13:27:31;;;;;;;14.68;12.48;;;;;;;;;;6067077;23;20034;-74
2023/04/10 13:29:57;;;;;;;12.57;10.45;;;;;;;;;;6093311;23;20022;-75
2023/04/10 13:32:23;;;;;;;15.27;11.30;;;;;;;;;;6092366;23;20010;-74
2023/04/10 13:34:49;;;;;;;18.10;10.00;;;;;;;;;;6066242;23;20650;-74
2023/04/10 13:37:15;;;;;;;19.50;10.65;;;;;;;;;;6067274;23;20019;-74
2023/04/10 13:39:42;;;;;;;16.08;9.75;;;;;;;;;;6068169;23;20018;-74
2023/04/10 13:42:08;;;;;;;12.25;9.40;;;;;;;;;;6093428;23;20066;-74
2023/04/10 13:44:34;;;;;;;14.82;10.15;;;;;;;;;;6066876;23;20024;-74
2023/04/10 13:47:00;;;;;;;10.10;9.07;;;;;;;;;;6095674;23;20022;-74
2023/04/10 13:49:29;;;;;;;12.32;10.63;;;;;;;;;;6093461;23;20408;-73
2023/04/10 13:51:58;;;;;;;10.82;9.25;;;;;;;;;;6093329;23;20025;-75
2023/04/10 13:54:25;;;;;;;16.38;10.07;;;;;;;;;;6093006;23;20400;-74
2023/04/10 13:56:53;;;;;;;10.68;9.68;;;;;;;;;;6093115;23;20021;-74
2023/04/10 13:59:19;;;;;;;10.68;9.68;;;;;;;;;;6067892;23;20105;-74
2023/04/10 14:01:46;;;;;;;13.30;10.38;;;;;;;;;;6092954;23;20086;-75
2023/04/10 14:04:12;;;;;;;10.95;9.85;;;;;;;;;;6093520;23;20605;-74
2023/04/10 14:06:38;;;;;;;11.90;10.10;;;;;;;;;;6093163;23;20061;-74
2023/04/10 14:09:04;;;;;;;13.13;10.32;;;;;;;;;;6093550;23;20485;-73
2023/04/10 14:11:30;;;;;;;11.07;9.95;;;;;;;;;;6093277;23;20046;-74
2023/04/10 14:13:56;;;;;;;10.82;9.43;;;;;;;;;;6093656;23;20014;-74
2023/04/10 14:16:21;;;;;;;15.65;9.77;;;;;;;;;;6067959;23;20014;-75
2023/04/10 14:18:47;;;;;;;10.80;9.63;;;;;;;;;;6043723;23;20101;-74
2023/04/10 14:21:13;;;;;;;13.43;9.20;;;;;;;;;;6093427;23;20010;-74
2023/04/10 14:23:40;;;;;;;12.32;10.02;;;;;;;;;;6092475;23;20033;-74
2023/04/10 14:26:06;;;;;;;13.35;9.20;;;;;;;;;;6093268;23;20479;-74
2023/04/10 14:28:32;;;;;;;11.07;8.98;;;;;;;;;;6043375;23;20057;-74
2023/04/10 14:30:58;;;;;;;12.00;8.65;;;;;;;;;;6067359;23;20076;-75
2023/04/10 14:33:24;;;;;;;9.50;8.60;;;;;;;;;;6067199;23;20101;-73
2023/04/10 14:35:51;;;;;;;18.90;9.40;;;;;;;;;;6092461;23;20029;-75
2023/04/10 14:38:16;;;;;;;9.35;8.40;;;;;;;;;;6044600;23;20014;-75
2023/04/10 14:40:44;;;;;;;9.07;8.18;;;;;;;;;;6093458;23;20093;-75